Time;durP1;ratioP1;P1;durP2;ratioP2;P2;SDS_P1;SDS_P2;PMS_P1;PMS_P2;Temp;Humidity;BMP_temperature;BMP_pressure;BME280_temperature;BME280_humidity;BME280_pressure;Samples;Min_cycle;Max_cycle;Signal;HPM_P1;HPM_P2
2021/10/11 00:00:09;;;;;;;10.45;3.92;;;10.10;92.40;;;;;;5073432;28;20180;-74
2021/10/11 00:02:36;;;;;;;9.30;3.75;;;10.10;92.60;;;;;;5061294;28;20127;-74
2021/10/11 00:05:04;;;;;;;10.48;4.72;;;10.00;92.70;;;;;;5076393;28;20140;-74
2021/10/11 00:07:31;;;;;;;11.05;3.53;;;10.00;92.90;;;;;;5059317;28;20088;-74
2021/10/11 00:09:58;;;;;;;9.88;3.85;;;10.10;92.10;;;;;;5069354;28;20558;-73
2021/10/11 00:12:25;;;;;;;8.68;3.60;;;10.10;91.60;;;;;;5064031;28;20048;-73
2021/10/11 00:14:52;;;;;;;9.95;3.67;;;10.10;91.60;;;;;;5078439;28;20173;-74
2021/10/11 00:17:19;;;;;;;9.55;3.60;;;10.20;91.60;;;;;;5064877;28;20052;-74
2021/10/11 00:19:50;;;;;;;9.82;4.15;;;10.20;92.10;;;;;;5066540;28;20086;-74
2021/10/11 00:22:18;;;;;;;13.30;3.63;;;10.10;92.10;;;;;;5038837;28;20090;-76
2021/10/11 00:24:47;;;;;;;9.75;3.65;;;10.10;92.50;;;;;;5085499;28;20044;-75
2021/10/11 00:27:14;;;;;;;12.30;4.10;;;10.00;92.40;;;;;;5075016;28;20479;-76
2021/10/11 00:29:42;;;;;;;15.25;4.55;;;10.00;92.60;;;;;;5065940;28;20066;-76
2021/10/11 00:32:09;;;;;;;10.80;3.85;;;9.90;92.80;;;;;;5079143;28;20048;-75
2021/10/11 00:34:36;;;;;;;8.15;3.70;;;9.90;92.80;;;;;;5084606;28;20048;-76
2021/10/11 00:37:04;;;;;;;10.10;3.22;;;9.90;92.90;;;;;;5071252;28;20047;-75
2021/10/11 00:39:31;;;;;;;10.95;3.22;;;9.80;92.80;;;;;;5055149;28;20129;-74
2021/10/11 00:41:58;;;;;;;8.95;3.38;;;9.80;93.30;;;;;;5079391;28;20048;-74
2021/10/11 00:44:25;;;;;;;8.25;3.95;;;9.70;93.00;;;;;;5080280;28;20055;-74
2021/10/11 00:46:52;;;;;;;8.38;3.38;;;9.70;93.30;;;;;;5085502;28;20048;-74
2021/10/11 00:49:19;;;;;;;9.38;3.40;;;9.60;93.50;;;;;;5040194;28;20119;-74
2021/10/11 00:51:46;;;;;;;10.23;3.67;;;9.60;93.10;;;;;;5057713;28;20077;-74
2021/10/11 00:54:14;;;;;;;11.13;4.38;;;9.50;93.50;;;;;;5085419;28;20044;-74
2021/10/11 00:56:41;;;;;;;8.82;3.97;;;9.50;93.90;;;;;;5061101;28;20071;-74
2021/10/11 00:59:08;;;;;;;8.68;3.95;;;9.40;93.90;;;;;;5063493;28;20040;-74
2021/10/11 01:01:35;;;;;;;11.63;5.10;;;9.40;94.00;;;;;;5063056;28;20162;-73
2021/10/11 01:04:05;;;;;;;16.00;6.13;;;9.40;94.20;;;;;;5080239;28;20040;-74
2021/10/11 01:06:38;;;;;;;8.80;4.82;;;9.40;94.30;;;;;;5057268;28;20431;-74
2021/10/11 01:09:06;;;;;;;11.27;3.88;;;9.40;94.40;;;;;;5047955;28;20062;-75
2021/10/11 01:11:33;;;;;;;13.95;5.10;;;9.30;94.10;;;;;;5040752;28;20491;-75
2021/10/11 01:14:00;;;;;;;11.10;4.22;;;9.30;94.40;;;;;;5077200;28;20110;-74
2021/10/11 01:16:27;;;;;;;9.25;4.45;;;9.30;94.50;;;;;;5075435;28;20059;-74
2021/10/11 01:18:55;;;;;;;11.48;4.72;;;9.20;94.50;;;;;;5083888;28;20099;-74
2021/10/11 01:21:22;;;;;;;12.35;5.47;;;9.20;94.40;;;;;;5068274;28;20056;-74
2021/10/11 01:23:49;;;;;;;10.93;4.82;;;9.10;94.50;;;;;;5063214;28;20501;-74
2021/10/11 01:26:16;;;;;;;14.60;6.15;;;9.10;94.90;;;;;;5068916;28;20048;-74
2021/10/11 01:28:46;;;;;;;7.93;5.28;;;9.10;94.60;;;;;;5083164;28;20045;-74
2021/10/11 01:31:12;;;;;;;;;;;9.10;94.70;;;;;;5064782;28;20044;-74
2021/10/11 01:33:40;;;;;;;9.02;4.75;;;9.00;94.80;;;;;;5079356;28;20014;-76
2021/10/11 01:36:06;;;;;;;12.82;5.90;;;9.00;94.80;;;;;;5053893;28;20052;-74
2021/10/11 01:38:33;;;;;;;13.23;6.15;;;9.00;94.70;;;;;;5072609;28;20048;-74
2021/10/11 01:41:00;;;;;;;9.15;5.47;;;8.90;95.00;;;;;;5088152;28;20105;-74
2021/10/11 01:43:27;;;;;;;12.20;5.70;;;8.90;94.80;;;;;;5057280;28;20048;-74
2021/10/11 01:45:54;;;;;;;15.20;5.47;;;8.90;95.00;;;;;;5075514;28;20132;-74
2021/10/11 01:48:21;;;;;;;11.30;5.30;;;8.80;95.00;;;;;;5061940;28;20048;-74
2021/10/11 01:50:48;;;;;;;10.32;5.68;;;8.80;94.80;;;;;;5056552;28;20206;-74
2021/10/11 01:53:15;;;;;;;11.32;5.75;;;8.80;95.40;;;;;;5075196;28;20052;-74
2021/10/11 01:55:42;;;;;;;15.73;6.38;;;8.70;95.20;;;;;;5080043;28;20063;-74
2021/10/11 01:58:09;;;;;;;15.93;6.35;;;8.70;95.20;;;;;;5063774;28;20100;-74
2021/10/11 02:00:36;;;;;;;15.95;5.78;;;8.60;95.30;;;;;;5075923;28;20123;-74
2021/10/11 02:03:07;;;;;;;14.65;6.47;;;8.60;95.40;;;;;;5078294;28;20070;-74
2021/10/11 02:05:34;;;;;;;12.10;6.07;;;8.60;95.40;;;;;;5080718;28;20040;-74
2021/10/11 02:08:02;;;;;;;13.23;5.60;;;8.60;95.60;;;;;;5068204;28;20475;-74
2021/10/11 02:10:29;;;;;;;11.75;6.30;;;8.50;95.10;;;;;;5084549;28;20205;-74
2021/10/11 02:12:59;;;;;;;11.80;5.95;;;8.50;95.50;;;;;;5049979;28;20040;-74
2021/10/11 02:15:26;;;;;;;17.75;7.25;;;8.40;95.40;;;;;;5077488;28;20051;-74
2021/10/11 02:17:53;;;;;;;13.43;6.22;;;8.40;95.50;;;;;;5074624;28;20051;-74
2021/10/11 02:20:20;;;;;;;7.75;4.60;;;8.40;95.70;;;;;;5052890;28;20043;-74
2021/10/11 02:22:47;;;;;;;11.48;5.53;;;8.30;95.50;;;;;;5070674;28;20445;-74
2021/10/11 02:25:14;;;;;;;13.68;6.25;;;8.30;95.50;;;;;;5090956;28;20048;-75
2021/10/11 02:27:45;;;;;;;13.43;6.07;;;8.30;95.60;;;;;;5074738;28;20059;-75
2021/10/11 02:30:12;;;;;;;11.45;5.13;;;8.30;95.70;;;;;;5073563;28;20537;-76
2021/10/11 02:32:41;;;;;;;12.55;5.63;;;8.30;95.70;;;;;;5068435;28;20048;-75
2021/10/11 02:35:09;;;;;;;;;;;8.30;95.70;;;;;;5062909;28;20056;-75
2021/10/11 02:37:36;;;;;;;11.55;5.25;;;8.20;95.70;;;;;;5092142;28;19920;-75
2021/10/11 02:40:04;;;;;;;5.60;4.13;;;8.20;96.10;;;;;;5073540;28;20127;-75
2021/10/11 02:42:30;;;;;;;9.98;4.63;;;8.20;95.70;;;;;;5092456;28;20055;-74
2021/10/11 02:44:57;;;;;;;6.68;5.03;;;8.10;96.00;;;;;;5090734;28;20058;-74
2021/10/11 02:47:25;;;;;;;10.57;5.95;;;8.10;95.70;;;;;;5072738;28;20502;-74
2021/10/11 02:49:52;;;;;;;8.85;5.15;;;8.10;96.30;;;;;;5091901;28;20126;-75
2021/10/11 02:52:20;;;;;;;11.10;5.07;;;8.10;95.90;;;;;;5090752;28;20044;-75
2021/10/11 02:54:47;;;;;;;9.40;4.82;;;8.10;95.90;;;;;;5074399;28;20040;-75
2021/10/11 02:57:14;;;;;;;11.07;5.82;;;8.00;95.90;;;;;;5073338;28;20119;-75
2021/10/11 02:59:42;;;;;;;9.07;4.97;;;8.00;95.80;;;;;;5073020;28;20123;-74
2021/10/11 03:02:09;;;;;;;12.15;4.88;;;8.00;95.70;;;;;;5087894;28;20084;-74
2021/10/11 03:04:37;;;;;;;9.70;4.47;;;7.90;95.70;;;;;;5091606;28;20071;-75
2021/10/11 03:07:03;;;;;;;12.23;5.03;;;7.90;95.90;;;;;;5090508;28;20484;-74
2021/10/11 03:09:30;;;;;;;12.50;6.38;;;7.90;96.00;;;;;;5055526;28;20087;-74
2021/10/11 03:11:57;;;;;;;9.88;5.20;;;7.90;96.20;;;;;;5084870;28;20127;-74
2021/10/11 03:14:25;;;;;;;17.55;6.05;;;7.80;95.90;;;;;;5072561;28;20127;-73
2021/10/11 03:16:51;;;;;;;9.10;4.45;;;7.80;96.40;;;;;;5084629;28;20040;-75
2021/10/11 03:19:18;;;;;;;12.00;6.10;;;7.80;96.10;;;;;;5063380;28;20062;-74
2021/10/11 03:21:45;;;;;;;11.43;5.80;;;7.80;96.20;;;;;;5064421;28;20051;-74
2021/10/11 03:24:12;;;;;;;8.82;5.15;;;7.70;96.00;;;;;;5059429;28;20573;-74
2021/10/11 03:26:39;;;;;;;11.80;4.78;;;7.70;96.10;;;;;;5059090;28;20049;-74
2021/10/11 03:29:07;;;;;;;9.02;5.13;;;7.70;96.40;;;;;;5064334;28;20052;-74
2021/10/11 03:31:34;;;;;;;13.25;5.28;;;7.70;96.20;;;;;;5058696;28;20045;-74
2021/10/11 03:34:01;;;;;;;8.07;4.10;;;7.60;96.30;;;;;;5060732;28;20064;-74
2021/10/11 03:36:28;;;;;;;10.43;4.28;;;7.60;96.10;;;;;;5069959;28;20495;-76
2021/10/11 03:38:55;;;;;;;13.85;5.97;;;7.60;96.00;;;;;;5066571;28;20048;-75
2021/10/11 03:41:22;;;;;;;8.73;4.80;;;7.60;96.70;;;;;;5068374;28;20044;-75
2021/10/11 03:43:49;;;;;;;9.93;4.80;;;7.50;96.20;;;;;;5061803;28;20041;-75
2021/10/11 03:46:16;;;;;;;8.35;5.47;;;7.50;96.20;;;;;;5059226;28;20128;-74
2021/10/11 03:48:43;;;;;;;9.57;4.60;;;7.50;96.30;;;;;;5035084;28;20074;-74
2021/10/11 03:51:10;;;;;;;18.02;5.40;;;7.50;96.40;;;;;;5055424;28;20064;-74
2021/10/11 03:53:38;;;;;;;10.70;5.18;;;7.40;96.30;;;;;;5059991;28;20484;-74
2021/10/11 03:56:05;;;;;;;9.88;4.68;;;7.40;96.30;;;;;;5050775;28;20057;-74
2021/10/11 03:58:32;;;;;;;12.35;5.93;;;7.40;96.30;;;;;;5043998;28;20140;-74
2021/10/11 04:00:59;;;;;;;8.40;5.88;;;7.40;97.30;;;;;;5056710;28;20053;-74
2021/10/11 04:03:26;;;;;;;10.57;5.63;;;7.40;96.80;;;;;;5058272;28;20052;-74
2021/10/11 04:05:53;;;;;;;10.70;4.50;;;7.40;96.70;;;;;;5056805;28;20045;-74
2021/10/11 04:08:21;;;;;;;10.40;5.20;;;7.40;96.50;;;;;;5058780;28;20110;-74
2021/10/11 04:13:21;;;;;;;;;;;7.30;96.60;;;;;;5064097;28;20106;-74
2021/10/11 04:15:48;;;;;;;10.18;4.82;;;7.30;96.90;;;;;;5065128;28;20690;-74
2021/10/11 04:18:16;;;;;;;9.40;5.07;;;7.30;96.70;;;;;;5045955;28;20091;-74
2021/10/11 04:20:43;;;;;;;10.30;4.95;;;7.30;96.60;;;;;;5057715;28;20504;-74
2021/10/11 04:23:10;;;;;;;9.35;5.15;;;7.30;96.50;;;;;;5064479;28;20060;-75
2021/10/11 04:25:37;;;;;;;9.60;4.65;;;7.20;96.90;;;;;;5067461;28;20045;-74
2021/10/11 04:28:04;;;;;;;12.90;5.10;;;7.20;97.40;;;;;;5055439;28;20441;-73
2021/10/11 04:30:32;;;;;;;10.75;4.68;;;7.20;96.70;;;;;;5058667;28;20120;-74
2021/10/11 04:32:59;;;;;;;10.73;5.10;;;7.20;97.10;;;;;;5056128;28;20052;-74
2021/10/11 04:35:28;;;;;;;9.27;5.03;;;7.20;96.60;;;;;;5064211;28;20069;-74
2021/10/11 04:37:55;;;;;;;14.75;5.50;;;7.10;97.00;;;;;;5054837;28;20044;-74
2021/10/11 04:40:22;;;;;;;10.32;5.80;;;7.10;97.10;;;;;;5057006;28;20052;-74
2021/10/11 04:42:49;;;;;;;10.93;4.72;;;7.10;96.80;;;;;;5055652;28;20127;-75
2021/10/11 04:45:16;;;;;;;12.57;4.95;;;7.10;97.30;;;;;;5064209;28;20416;-74
2021/10/11 04:47:43;;;;;;;11.40;5.07;;;7.00;97.10;;;;;;5051928;28;20037;-74
2021/10/11 04:50:10;;;;;;;13.77;6.03;;;7.00;96.90;;;;;;5055544;28;20439;-74
2021/10/11 04:52:37;;;;;;;9.52;4.50;;;7.00;98.20;;;;;;5050485;28;20128;-75
2021/10/11 04:55:05;;;;;;;9.20;4.35;;;7.00;96.90;;;;;;5062475;28;20044;-74
2021/10/11 04:57:31;;;;;;;10.52;4.47;;;7.00;98.20;;;;;;5065120;28;20084;-75
2021/10/11 04:59:58;;;;;;;10.90;5.05;;;7.10;97.20;;;;;;5055985;28;20568;-75
2021/10/11 05:02:25;;;;;;;10.30;4.97;;;7.10;97.50;;;;;;5052143;28;20437;-74
2021/10/11 05:04:52;;;;;;;13.65;5.50;;;7.00;97.10;;;;;;5058364;28;20516;-74
2021/10/11 05:07:19;;;;;;;8.40;5.00;;;7.00;96.90;;;;;;5059189;28;20128;-74
2021/10/11 05:09:50;;;;;;;9.40;4.72;;;7.00;97.30;;;;;;5051280;28;20099;-76
2021/10/11 05:12:17;;;;;;;16.08;4.57;;;7.00;97.30;;;;;;5061948;28;20047;-73
2021/10/11 05:14:44;;;;;;;9.80;4.72;;;7.00;97.30;;;;;;5060924;28;20084;-75
2021/10/11 05:17:11;;;;;;;11.27;4.90;;;6.90;97.00;;;;;;5044850;28;20069;-75
2021/10/11 05:19:38;;;;;;;10.23;5.45;;;7.00;97.20;;;;;;5057789;28;20458;-75
2021/10/11 05:22:05;;;;;;;12.23;4.68;;;6.90;97.30;;;;;;5059029;28;20085;-74
2021/10/11 05:24:32;;;;;;;12.80;5.20;;;6.80;97.20;;;;;;5066365;28;20048;-74
2021/10/11 05:26:59;;;;;;;11.48;4.97;;;6.80;97.30;;;;;;5061061;28;20052;-75
2021/10/11 05:29:26;;;;;;;7.93;4.07;;;6.80;97.40;;;;;;5061619;28;20135;-74
2021/10/11 05:31:53;;;;;;;10.68;5.85;;;6.80;96.90;;;;;;5063491;28;20048;-74
2021/10/11 05:34:20;;;;;;;13.73;6.05;;;6.80;97.80;;;;;;5061080;28;20077;-74
2021/10/11 05:36:47;;;;;;;12.95;7.00;;;6.80;97.50;;;;;;5041948;28;20078;-75
2021/10/11 05:39:14;;;;;;;13.60;6.03;;;6.80;97.50;;;;;;5061885;28;20055;-74
2021/10/11 05:41:41;;;;;;;10.07;5.32;;;6.80;97.20;;;;;;5060675;28;20492;-74
2021/10/11 05:44:08;;;;;;;11.23;5.18;;;6.80;97.50;;;;;;5051706;28;20055;-73
2021/10/11 05:46:36;;;;;;;41.83;32.17;;;6.80;97.10;;;;;;5050390;28;20045;-75
2021/10/11 05:49:10;;;;;;;613.13;412.90;;;6.80;97.40;;;;;;5059269;28;20051;-68
2021/10/11 05:51:37;;;;;;;93.50;63.75;;;6.80;97.70;;;;;;5062022;28;20123;-74
2021/10/11 05:54:04;;;;;;;38.20;20.63;;;6.80;97.50;;;;;;5062466;28;20143;-74
2021/10/11 05:56:31;;;;;;;14.52;9.02;;;6.70;97.40;;;;;;5054767;28;20131;-77
2021/10/11 05:59:02;;;;;;;10.43;6.45;;;6.70;98.30;;;;;;5056901;28;20063;-79
2021/10/11 06:01:29;;;;;;;12.98;6.75;;;6.70;97.50;;;;;;5051658;28;20049;-76
2021/10/11 06:03:56;;;;;;;10.05;5.57;;;6.70;97.60;;;;;;5060367;28;20136;-70
2021/10/11 06:06:23;;;;;;;14.18;4.97;;;6.70;97.70;;;;;;5038651;28;20049;-69
2021/10/11 06:08:50;;;;;;;8.23;4.90;;;6.70;97.70;;;;;;5063359;28;20136;-65
2021/10/11 06:11:17;;;;;;;15.00;6.05;;;6.70;97.70;;;;;;5064100;28;20709;-67
2021/10/11 06:13:44;;;;;;;11.43;5.47;;;6.70;98.20;;;;;;5019003;28;20048;-66
2021/10/11 06:16:12;;;;;;;11.48;5.18;;;6.70;97.60;;;;;;5053310;28;20135;-66
2021/10/11 06:18:39;;;;;;;15.10;6.60;;;6.70;97.80;;;;;;5064241;28;20057;-66
2021/10/11 06:21:06;;;;;;;11.23;4.65;;;6.70;97.50;;;;;;5062578;28;20512;-73
2021/10/11 06:23:33;;;;;;;11.57;5.30;;;6.70;97.80;;;;;;5037120;28;20453;-66
2021/10/11 06:26:00;;;;;;;10.77;4.97;;;6.70;98.10;;;;;;5063597;28;20048;-75
2021/10/11 06:28:27;;;;;;;9.93;5.03;;;6.70;98.00;;;;;;5057888;28;20044;-75
2021/10/11 06:30:54;;;;;;;12.30;5.30;;;6.70;98.40;;;;;;5064256;28;20078;-72
2021/10/11 06:33:22;;;;;;;14.45;5.57;;;6.70;98.00;;;;;;5048187;28;20055;-74
2021/10/11 06:35:49;;;;;;;9.05;5.40;;;6.70;98.10;;;;;;5051062;28;20131;-71
2021/10/11 06:38:16;;;;;;;11.57;4.90;;;6.70;97.90;;;;;;5051627;28;20485;-71
2021/10/11 06:40:46;;;;;;;12.73;6.85;;;6.80;98.20;;;;;;5051485;28;20132;-73
2021/10/11 06:43:13;;;;;;;16.33;5.90;;;6.80;99.50;;;;;;5052337;28;20045;-74
2021/10/11 06:45:40;;;;;;;13.18;6.20;;;6.80;99.20;;;;;;5058603;28;20040;-71
2021/10/11 06:48:07;;;;;;;10.65;5.88;;;6.90;98.30;;;;;;5042501;28;20518;-64
2021/10/11 06:50:34;;;;;;;15.32;5.28;;;6.90;98.30;;;;;;5054121;28;20048;-65
2021/10/11 06:53:01;;;;;;;12.77;5.47;;;7.00;98.50;;;;;;5051865;28;20048;-65
2021/10/11 06:55:28;;;;;;;14.23;5.72;;;7.00;98.80;;;;;;5064681;28;20045;-66
2021/10/11 06:58:00;;;;;;;13.75;5.60;;;7.00;98.80;;;;;;5054034;28;20052;-65
2021/10/11 07:00:27;;;;;;;10.05;6.22;;;7.00;99.00;;;;;;5056298;28;20047;-65
2021/10/11 07:02:54;;;;;;;12.38;5.25;;;7.10;99.20;;;;;;5047336;28;20060;-65
2021/10/11 07:05:21;;;;;;;15.02;5.68;;;7.20;99.20;;;;;;5049961;28;20052;-64
2021/10/11 07:07:48;;;;;;;13.50;6.47;;;7.20;98.90;;;;;;5048906;28;20054;-71
2021/10/11 07:10:15;;;;;;;13.70;5.88;;;7.30;99.00;;;;;;5059351;28;20511;-71
2021/10/11 07:12:42;;;;;;;17.42;6.53;;;7.30;99.20;;;;;;5048097;28;20049;-71
2021/10/11 07:15:24;;;;;;;12.15;6.45;;;7.40;98.80;;;;;;5051501;28;20083;-71
2021/10/11 07:17:51;;;;;;;13.93;5.57;;;7.40;99.00;;;;;;5033610;28;20132;-69
2021/10/11 07:20:22;;;;;;;12.43;6.43;;;7.50;99.20;;;;;;5051849;28;20083;-70
2021/10/11 07:22:49;;;;;;;18.90;6.82;;;7.50;99.00;;;;;;5079113;28;20143;-70
2021/10/11 07:25:16;;;;;;;13.25;7.05;;;7.60;99.10;;;;;;5060309;28;20037;-65
2021/10/11 07:27:47;;;;;;;32.08;9.38;;;7.60;99.20;;;;;;5067988;28;20120;-65
2021/10/11 07:30:14;;;;;;;17.92;7.43;;;7.70;99.10;;;;;;5067040;28;20045;-66
2021/10/11 07:32:41;;;;;;;24.02;10.45;;;7.70;99.50;;;;;;5041787;28;20074;-65
2021/10/11 07:35:08;;;;;;;89.70;59.55;;;7.80;99.50;;;;;;5067675;28;20055;-75
2021/10/11 07:37:51;;;;;;;65.65;47.08;;;7.90;99.30;;;;;;5054982;28;20068;-77
2021/10/11 07:40:21;;;;;;;19.10;9.98;;;8.00;99.30;;;;;;5054732;28;20474;-72
2021/10/11 07:42:48;;;;;;;18.25;8.70;;;8.10;99.50;;;;;;5069888;28;20058;-74
2021/10/11 07:45:15;;;;;;;20.15;7.47;;;8.20;99.40;;;;;;5068025;28;20135;-76
2021/10/11 07:47:42;;;;;;;18.08;7.43;;;8.30;99.40;;;;;;5067377;28;20066;-77
2021/10/11 07:50:10;;;;;;;29.10;20.17;;;8.40;99.20;;;;;;5053533;28;20086;-70
2021/10/11 07:52:37;;;;;;;17.90;8.00;;;8.50;99.10;;;;;;5052402;28;20484;-77
2021/10/11 07:55:04;;;;;;;16.00;7.05;;;8.60;98.90;;;;;;5035518;28;20894;-75
2021/10/11 07:57:33;;;;;;;20.65;6.60;;;8.70;98.80;;;;;;5048190;28;20076;-74
2021/10/11 08:00:02;;;;;;;19.73;6.93;;;8.80;98.90;;;;;;5073055;28;20475;-71
2021/10/11 08:02:29;;;;;;;11.82;6.25;;;8.90;98.80;;;;;;5054805;28;20300;-71
2021/10/11 08:04:58;;;;;;;16.85;7.18;;;9.00;98.70;;;;;;5051995;28;20131;-72
2021/10/11 08:07:25;;;;;;;17.05;7.10;;;9.10;98.50;;;;;;5034678;28;20052;-71
2021/10/11 08:09:52;;;;;;;24.08;9.15;;;9.20;98.60;;;;;;5069365;28;20044;-73
2021/10/11 08:12:19;;;;;;;16.88;6.80;;;9.20;98.40;;;;;;5051588;28;20044;-72
2021/10/11 08:14:46;;;;;;;17.45;7.43;;;9.30;98.20;;;;;;5052409;28;20090;-72
2021/10/11 08:17:13;;;;;;;18.05;7.63;;;9.40;98.20;;;;;;5068918;28;20049;-72
2021/10/11 08:19:40;;;;;;;16.15;6.53;;;9.40;98.00;;;;;;5047396;28;20114;-73
2021/10/11 08:22:07;;;;;;;16.90;7.40;;;9.50;97.90;;;;;;5047628;28;20080;-72
2021/10/11 08:24:34;;;;;;;19.10;6.85;;;9.60;98.10;;;;;;5064662;28;20172;-72
2021/10/11 08:27:02;;;;;;;21.65;8.27;;;9.60;98.00;;;;;;5048748;28;20516;-72
2021/10/11 08:29:32;;;;;;;22.02;11.07;;;9.60;97.60;;;;;;5063973;28;20540;-73
2021/10/11 08:31:59;;;;;;;24.75;13.82;;;9.70;97.70;;;;;;5051151;28;20094;-72
2021/10/11 08:34:28;;;;;;;25.85;16.88;;;9.70;97.50;;;;;;5069012;28;20072;-72
2021/10/11 08:36:55;;;;;;;18.17;9.25;;;9.80;97.20;;;;;;5068366;28;20150;-73
2021/10/11 08:39:22;;;;;;;25.40;7.07;;;9.80;97.30;;;;;;5068327;28;20059;-72
2021/10/11 08:41:50;;;;;;;16.65;6.97;;;9.90;97.10;;;;;;5047848;28;20041;-72
2021/10/11 08:44:17;;;;;;;21.98;7.10;;;9.90;97.30;;;;;;5048583;28;20695;-76
2021/10/11 08:46:46;;;;;;;13.93;6.88;;;10.00;97.10;;;;;;5067268;28;20139;-72
2021/10/11 08:49:13;;;;;;;16.92;7.57;;;10.00;97.10;;;;;;5057420;28;20412;-73
2021/10/11 08:51:40;;;;;;;18.27;7.22;;;10.10;96.90;;;;;;5014556;28;20136;-72
2021/10/11 08:54:07;;;;;;;17.63;7.70;;;10.20;96.80;;;;;;5030881;28;20049;-71
2021/10/11 08:56:34;;;;;;;16.70;5.80;;;10.30;96.80;;;;;;5014026;28;20057;-71
2021/10/11 08:59:01;;;;;;;13.93;5.28;;;10.40;95.60;;;;;;5044522;28;20855;-71
2021/10/11 09:01:28;;;;;;;15.13;3.90;;;10.50;95.20;;;;;;5050748;28;20480;-71
2021/10/11 09:03:55;;;;;;;16.63;5.22;;;10.70;93.20;;;;;;5068106;28;20506;-71
2021/10/11 09:06:23;;;;;;;10.95;4.40;;;10.90;94.10;;;;;;5067504;28;20059;-71
2021/10/11 09:08:50;;;;;;;12.88;4.35;;;11.00;93.30;;;;;;5055788;28;20044;-73
2021/10/11 09:11:18;;;;;;;12.93;4.00;;;11.20;92.50;;;;;;5069818;28;20059;-78
2021/10/11 09:13:51;;;;;;;14.70;3.97;;;11.20;92.20;;;;;;5057684;28;20406;-70
2021/10/11 09:16:29;;;;;;;19.80;9.63;;;11.30;91.60;;;;;;5046778;28;20129;-72
2021/10/11 09:19:34;;;;;;;18.27;4.68;;;11.30;91.00;;;;;;5087985;28;20139;-74
2021/10/11 09:22:02;;;;;;;14.85;4.00;;;11.40;90.30;;;;;;5046733;28;20056;-72
2021/10/11 09:24:30;;;;;;;11.23;3.50;;;11.40;91.20;;;;;;5068135;28;20127;-72
2021/10/11 09:27:01;;;;;;;10.60;3.33;;;11.40;90.60;;;;;;5051517;28;20052;-77
2021/10/11 09:29:39;;;;;;;11.32;3.35;;;11.40;90.10;;;;;;5069468;28;20054;-72
2021/10/11 09:32:10;;;;;;;17.90;5.65;;;11.50;90.30;;;;;;5063743;28;20121;-72
2021/10/11 09:34:40;;;;;;;7.85;2.88;;;11.50;90.00;;;;;;5050119;28;20522;-79
2021/10/11 09:37:09;;;;;;;13.80;3.30;;;11.60;90.20;;;;;;5068155;28;20623;-72
2021/10/11 09:39:37;;;;;;;12.93;5.18;;;11.70;89.60;;;;;;5064141;28;20154;-77
2021/10/11 09:42:07;;;;;;;8.50;3.20;;;11.90;88.10;;;;;;5088816;28;20384;-73
2021/10/11 09:44:34;;;;;;;13.52;3.42;;;11.90;85.40;;;;;;5049893;28;20087;-73
2021/10/11 09:47:08;;;;;;;15.07;5.70;;;11.90;87.90;;;;;;5057129;28;20097;-72
2021/10/11 09:49:38;;;;;;;16.15;4.97;;;12.10;87.70;;;;;;5040110;28;20544;-74
2021/10/11 09:52:06;;;;;;;16.42;4.40;;;12.10;86.80;;;;;;5025389;28;20048;-74
2021/10/11 09:54:33;;;;;;;10.95;3.55;;;12.10;86.90;;;;;;5073759;28;20040;-72
2021/10/11 09:57:00;;;;;;;14.02;5.93;;;12.20;87.10;;;;;;5073925;28;20044;-74
2021/10/11 09:59:28;;;;;;;18.67;6.93;;;12.20;85.80;;;;;;5088100;28;20067;-72
2021/10/11 10:01:55;;;;;;;16.83;6.43;;;12.20;85.00;;;;;;5042591;28;20063;-72
2021/10/11 10:04:30;;;;;;;22.58;7.80;;;12.20;85.70;;;;;;5054959;28;20102;-73
2021/10/11 10:06:58;;;;;;;25.27;10.32;;;12.30;84.90;;;;;;5055641;28;20049;-73
2021/10/11 10:09:25;;;;;;;17.63;8.38;;;12.30;84.60;;;;;;5062521;28;20514;-74
2021/10/11 10:11:52;;;;;;;20.30;5.80;;;12.40;85.60;;;;;;5050024;28;20139;-73
2021/10/11 10:14:24;;;;;;;14.95;5.53;;;12.40;83.60;;;;;;5057880;28;20064;-73
2021/10/11 10:16:54;;;;;;;12.32;4.20;;;12.40;84.90;;;;;;5067391;28;20072;-73
2021/10/11 10:19:34;;;;;;;18.60;6.63;;;12.50;84.40;;;;;;5053641;28;20060;-73
2021/10/11 10:22:22;;;;;;;16.30;3.42;;;12.50;82.80;;;;;;5043233;28;20044;-73
2021/10/11 10:24:48;;;;;;;12.07;3.85;;;12.60;84.40;;;;;;5075426;28;20127;-72
2021/10/11 10:27:17;;;;;;;8.32;3.10;;;12.60;83.50;;;;;;5089944;28;20079;-73
2021/10/11 10:29:45;;;;;;;14.32;3.42;;;12.60;83.10;;;;;;5063191;28;20040;-73
2021/10/11 10:32:14;;;;;;;10.23;3.25;;;12.60;81.80;;;;;;5057819;28;20049;-73
2021/10/11 10:34:41;;;;;;;13.23;3.42;;;12.70;83.90;;;;;;5037744;28;20504;-72
2021/10/11 10:37:09;;;;;;;9.52;2.88;;;12.60;82.00;;;;;;5056688;28;20452;-74
2021/10/11 10:39:45;;;;;;;10.70;3.58;;;12.70;82.10;;;;;;5061921;28;20411;-79
2021/10/11 10:42:41;;;;;;;11.75;3.80;;;12.70;81.90;;;;;;5076292;28;20582;-74
2021/10/11 10:45:20;;;;;;;21.00;4.20;;;12.70;80.70;;;;;;5057977;28;20537;-73
2021/10/11 10:47:48;;;;;;;10.45;3.83;;;12.70;81.30;;;;;;5058868;28;20384;-72
2021/10/11 10:50:19;;;;;;;7.30;3.55;;;12.70;82.20;;;;;;5067801;28;20136;-73
2021/10/11 10:52:51;;;;;;;14.75;3.28;;;12.70;81.70;;;;;;5046855;28;20478;-72
2021/10/11 10:55:18;;;;;;;11.98;3.20;;;12.80;80.80;;;;;;5053532;28;20040;-72
2021/10/11 10:57:45;;;;;;;11.68;4.47;;;12.80;81.60;;;;;;5054481;28;20193;-71
2021/10/11 11:00:16;;;;;;;11.27;3.92;;;12.80;81.80;;;;;;5062373;28;20063;-73
2021/10/11 11:02:45;;;;;;;11.80;2.90;;;12.80;82.50;;;;;;5073081;28;20454;-72
2021/10/11 11:05:13;;;;;;;9.02;3.10;;;12.90;80.80;;;;;;5056931;28;20597;-75
2021/10/11 11:07:41;;;;;;;10.60;3.00;;;12.90;81.40;;;;;;5083420;28;20402;-71
2021/10/11 11:10:35;;;;;;;7.53;3.20;;;13.00;80.80;;;;;;5074744;28;20048;-72
2021/10/11 11:13:15;;;;;;;40.17;25.00;;;13.10;80.80;;;;;;5048163;28;20041;-71
2021/10/11 11:15:52;;;;;;;13.38;3.35;;;13.10;79.70;;;;;;5039234;28;20052;-75
2021/10/11 11:18:22;;;;;;;10.00;2.97;;;13.00;80.20;;;;;;5077984;28;20430;-74
2021/10/11 11:20:49;;;;;;;8.88;4.15;;;13.00;80.30;;;;;;5088139;28;20123;-70
2021/10/11 11:23:22;;;;;;;10.23;2.78;;;12.90;82.20;;;;;;5052955;28;20137;-75
2021/10/11 11:25:52;;;;;;;8.73;3.03;;;12.90;80.90;;;;;;5054841;28;20047;-70
2021/10/11 11:28:25;;;;;;;10.13;2.63;;;12.90;82.20;;;;;;5090064;28;20048;-72
2021/10/11 11:30:54;;;;;;;7.32;2.88;;;12.90;81.40;;;;;;5069893;28;20058;-72
2021/10/11 11:33:22;;;;;;;10.25;2.80;;;12.80;80.10;;;;;;5064036;28;20089;-70
2021/10/11 11:35:51;;;;;;;8.88;3.00;;;12.80;82.10;;;;;;5057148;28;20415;-72
2021/10/11 11:38:20;;;;;;;16.40;4.30;;;12.80;81.10;;;;;;5073196;28;20127;-73
2021/10/11 11:40:58;;;;;;;10.15;3.65;;;12.80;82.10;;;;;;5031836;28;20074;-73
2021/10/11 11:43:27;;;;;;;14.80;4.00;;;12.80;82.10;;;;;;5073481;28;20583;-73
2021/10/11 11:45:55;;;;;;;10.18;2.92;;;12.80;82.10;;;;;;5067699;28;20048;-73
2021/10/11 11:48:27;;;;;;;19.52;16.77;;;12.80;82.40;;;;;;5073162;28;20044;-71
2021/10/11 11:51:01;;;;;;;161.10;128.52;;;12.80;81.80;;;;;;5070513;28;20059;-71
2021/10/11 11:53:30;;;;;;;188.95;167.18;;;12.80;82.20;;;;;;5053242;28;20614;-71
2021/10/11 11:55:58;;;;;;;18.55;14.63;;;12.80;83.10;;;;;;5076752;28;20121;-72
2021/10/11 11:58:30;;;;;;;14.40;6.30;;;12.80;81.00;;;;;;5046039;28;20048;-72
2021/10/11 12:01:04;;;;;;;9.88;2.97;;;12.80;82.20;;;;;;5084648;28;20095;-72
2021/10/11 12:03:32;;;;;;;11.02;3.72;;;12.80;82.10;;;;;;5050820;28;20048;-71
2021/10/11 12:05:59;;;;;;;6.82;2.70;;;12.90;81.80;;;;;;5009718;28;20148;-73
2021/10/11 12:08:26;;;;;;;10.90;3.20;;;13.00;81.50;;;;;;5050064;28;20048;-75
2021/10/11 12:11:01;;;;;;;10.23;3.03;;;13.00;81.10;;;;;;5084757;28;20566;-61
2021/10/11 12:13:30;;;;;;;10.27;4.75;;;13.10;81.10;;;;;;5038782;28;20399;-69
2021/10/11 12:15:59;;;;;;;14.25;6.85;;;13.10;81.30;;;;;;5087419;28;20123;-61
2021/10/11 12:18:44;;;;;;;13.50;4.38;;;13.20;81.40;;;;;;5065107;28;20392;-61
2021/10/11 12:21:39;;;;;;;13.38;5.70;;;13.20;81.40;;;;;;5046785;28;20140;-62
2021/10/11 12:24:12;;;;;;;10.88;4.72;;;13.20;81.70;;;;;;5063260;28;20048;-62
2021/10/11 12:26:54;;;;;;;12.15;3.88;;;13.30;80.90;;;;;;5064237;28;20063;-62
2021/10/11 12:29:22;;;;;;;9.48;3.00;;;13.40;80.70;;;;;;5065589;28;20135;-61
2021/10/11 12:31:55;;;;;;;8.52;3.45;;;13.40;79.80;;;;;;5062869;28;20060;-62
2021/10/11 12:34:27;;;;;;;7.50;3.65;;;13.40;79.80;;;;;;5065227;28;20105;-62
2021/10/11 12:36:54;;;;;;;8.15;3.83;;;13.40;79.60;;;;;;5066233;28;20078;-63
2021/10/11 12:39:28;;;;;;;13.25;3.08;;;13.50;79.90;;;;;;5064696;28;20049;-63
2021/10/11 12:41:55;;;;;;;6.90;3.63;;;13.50;78.20;;;;;;5048581;28;20130;-62
2021/10/11 12:44:35;;;;;;;11.30;3.72;;;13.50;80.20;;;;;;5066141;28;20080;-62
2021/10/11 12:47:03;;;;;;;11.13;3.70;;;13.60;80.10;;;;;;5058151;28;20084;-62
2021/10/11 12:49:32;;;;;;;13.77;4.85;;;13.60;80.00;;;;;;5064763;28;20131;-62
2021/10/11 12:52:00;;;;;;;9.15;3.60;;;13.60;78.90;;;;;;5048501;28;20127;-63
2021/10/11 12:54:28;;;;;;;10.32;3.25;;;13.60;77.90;;;;;;5064337;28;20127;-62